sensor_id;sensor_type;location;lat;lon;timestamp;P1;durP1;ratioP1;P2;durP2;ratioP2
35442;SDS011;21561;55.654;37.592;2023-01-28T00:00:50;22.30;;;7.88;;
35442;SDS011;21561;55.654;37.592;2023-01-28T00:03:17;20.20;;;8.35;;
35442;SDS011;21561;55.654;37.592;2023-01-28T00:05:44;18.77;;;7.18;;
35442;SDS011;21561;55.654;37.592;2023-01-28T00:08:11;21.58;;;8.45;;
35442;SDS011;21561;55.654;37.592;2023-01-28T00:10:40;19.48;;;7.03;;
35442;SDS011;21561;55.654;37.592;2023-01-28T00:13:08;17.95;;;6.45;;
35442;SDS011;21561;55.654;37.592;2023-01-28T00:18:06;15.35;;;5.35;;
35442;SDS011;21561;55.654;37.592;2023-01-28T00:20:33;17.20;;;5.95;;
35442;SDS011;21561;55.654;37.592;2023-01-28T00:23:01;15.82;;;5.70;;
35442;SDS011;21561;55.654;37.592;2023-01-28T00:25:28;15.98;;;5.88;;
35442;SDS011;21561;55.654;37.592;2023-01-28T00:27:55;17.45;;;5.93;;
35442;SDS011;21561;55.654;37.592;2023-01-28T00:30:22;15.02;;;5.85;;
35442;SDS011;21561;55.654;37.592;2023-01-28T00:32:48;17.27;;;6.45;;
35442;SDS011;21561;55.654;37.592;2023-01-28T00:35:15;18.08;;;7.15;;
35442;SDS011;21561;55.654;37.592;2023-01-28T00:37:44;16.40;;;6.25;;
35442;SDS011;21561;55.654;37.592;2023-01-28T00:40:12;17.02;;;6.90;;
35442;SDS011;21561;55.654;37.592;2023-01-28T00:42:39;16.42;;;6.82;;
35442;SDS011;21561;55.654;37.592;2023-01-28T00:45:06;14.88;;;5.80;;
35442;SDS011;21561;55.654;37.592;2023-01-28T00:47:34;15.70;;;6.43;;
35442;SDS011;21561;55.654;37.592;2023-01-28T00:50:01;16.92;;;6.72;;
35442;SDS011;21561;55.654;37.592;2023-01-28T00:52:28;18.77;;;7.20;;
35442;SDS011;21561;55.654;37.592;2023-01-28T00:54:55;20.58;;;8.48;;
35442;SDS011;21561;55.654;37.592;2023-01-28T00:57:22;18.42;;;7.05;;
35442;SDS011;21561;55.654;37.592;2023-01-28T00:59:49;15.68;;;6.07;;
35442;SDS011;21561;55.654;37.592;2023-01-28T01:02:16;18.40;;;6.65;;
35442;SDS011;21561;55.654;37.592;2023-01-28T01:04:43;17.23;;;7.30;;
35442;SDS011;21561;55.654;37.592;2023-01-28T01:07:21;15.77;;;6.30;;
35442;SDS011;21561;55.654;37.592;2023-01-28T01:09:58;18.58;;;6.70;;
35442;SDS011;21561;55.654;37.592;2023-01-28T01:12:26;19.67;;;7.90;;
35442;SDS011;21561;55.654;37.592;2023-01-28T01:14:54;20.38;;;8.20;;
35442;SDS011;21561;55.654;37.592;2023-01-28T01:17:22;17.58;;;7.28;;
35442;SDS011;21561;55.654;37.592;2023-01-28T01:19:49;18.63;;;7.68;;
35442;SDS011;21561;55.654;37.592;2023-01-28T01:22:16;17.92;;;7.65;;
35442;SDS011;21561;55.654;37.592;2023-01-28T01:24:42;18.65;;;8.10;;
35442;SDS011;21561;55.654;37.592;2023-01-28T01:27:09;18.85;;;7.72;;
35442;SDS011;21561;55.654;37.592;2023-01-28T01:29:36;18.63;;;8.20;;
35442;SDS011;21561;55.654;37.592;2023-01-28T01:32:04;17.35;;;7.20;;
35442;SDS011;21561;55.654;37.592;2023-01-28T01:34:31;18.00;;;7.35;;
35442;SDS011;21561;55.654;37.592;2023-01-28T01:36:58;17.35;;;6.60;;
35442;SDS011;21561;55.654;37.592;2023-01-28T01:39:25;17.90;;;7.30;;
35442;SDS011;21561;55.654;37.592;2023-01-28T01:41:52;17.58;;;7.18;;
35442;SDS011;21561;55.654;37.592;2023-01-28T01:47:24;18.08;;;7.40;;
35442;SDS011;21561;55.654;37.592;2023-01-28T01:52:57;17.77;;;7.38;;
35442;SDS011;21561;55.654;37.592;2023-01-28T01:55:28;16.60;;;6.85;;
35442;SDS011;21561;55.654;37.592;2023-01-28T01:58:04;14.75;;;5.72;;
35442;SDS011;21561;55.654;37.592;2023-01-28T02:00:35;18.05;;;7.50;;
35442;SDS011;21561;55.654;37.592;2023-01-28T02:03:02;18.10;;;7.75;;
35442;SDS011;21561;55.654;37.592;2023-01-28T02:05:29;14.75;;;6.05;;
35442;SDS011;21561;55.654;37.592;2023-01-28T02:07:57;17.35;;;7.32;;
35442;SDS011;21561;55.654;37.592;2023-01-28T02:10:45;19.63;;;7.30;;
35442;SDS011;21561;55.654;37.592;2023-01-28T02:13:18;18.17;;;7.95;;
35442;SDS011;21561;55.654;37.592;2023-01-28T02:15:48;16.83;;;6.80;;
35442;SDS011;21561;55.654;37.592;2023-01-28T02:18:16;18.05;;;7.18;;
35442;SDS011;21561;55.654;37.592;2023-01-28T02:29:21;17.80;;;7.10;;
35442;SDS011;21561;55.654;37.592;2023-01-28T02:32:37;19.08;;;7.18;;
35442;SDS011;21561;55.654;37.592;2023-01-28T02:35:04;18.85;;;7.18;;
35442;SDS011;21561;55.654;37.592;2023-01-28T02:38:02;19.63;;;7.32;;
35442;SDS011;21561;55.654;37.592;2023-01-28T02:40:36;19.02;;;7.63;;
35442;SDS011;21561;55.654;37.592;2023-01-28T02:43:32;18.48;;;7.07;;
35442;SDS011;21561;55.654;37.592;2023-01-28T02:46:01;17.38;;;7.10;;
35442;SDS011;21561;55.654;37.592;2023-01-28T02:49:11;18.48;;;7.60;;
35442;SDS011;21561;55.654;37.592;2023-01-28T02:52:29;16.95;;;6.80;;
35442;SDS011;21561;55.654;37.592;2023-01-28T02:55:20;19.45;;;7.20;;
35442;SDS011;21561;55.654;37.592;2023-01-28T02:58:25;19.70;;;7.70;;
35442;SDS011;21561;55.654;37.592;2023-01-28T03:01:15;19.77;;;8.20;;
35442;SDS011;21561;55.654;37.592;2023-01-28T03:06:34;21.77;;;7.22;;
35442;SDS011;21561;55.654;37.592;2023-01-28T03:09:06;18.10;;;7.65;;
35442;SDS011;21561;55.654;37.592;2023-01-28T03:11:54;18.30;;;7.47;;
35442;SDS011;21561;55.654;37.592;2023-01-28T03:14:48;18.17;;;6.72;;
35442;SDS011;21561;55.654;37.592;2023-01-28T03:17:57;21.55;;;7.88;;
35442;SDS011;21561;55.654;37.592;2023-01-28T03:20:53;18.92;;;7.75;;
35442;SDS011;21561;55.654;37.592;2023-01-28T03:23:53;19.20;;;7.50;;
35442;SDS011;21561;55.654;37.592;2023-01-28T03:26:45;18.95;;;7.20;;
35442;SDS011;21561;55.654;37.592;2023-01-28T03:29:40;19.85;;;7.68;;
35442;SDS011;21561;55.654;37.592;2023-01-28T03:32:29;19.13;;;7.65;;
35442;SDS011;21561;55.654;37.592;2023-01-28T03:35:16;22.45;;;8.02;;
35442;SDS011;21561;55.654;37.592;2023-01-28T03:38:04;21.52;;;8.95;;
35442;SDS011;21561;55.654;37.592;2023-01-28T03:40:56;21.25;;;8.95;;
35442;SDS011;21561;55.654;37.592;2023-01-28T03:43:30;20.25;;;8.35;;
35442;SDS011;21561;55.654;37.592;2023-01-28T03:45:57;25.25;;;9.32;;
35442;SDS011;21561;55.654;37.592;2023-01-28T03:48:25;20.42;;;8.13;;
35442;SDS011;21561;55.654;37.592;2023-01-28T03:50:54;21.70;;;8.27;;
35442;SDS011;21561;55.654;37.592;2023-01-28T03:53:21;20.20;;;8.32;;
35442;SDS011;21561;55.654;37.592;2023-01-28T03:55:49;21.85;;;8.77;;
35442;SDS011;21561;55.654;37.592;2023-01-28T03:58:17;20.63;;;8.63;;
35442;SDS011;21561;55.654;37.592;2023-01-28T04:00:46;20.50;;;8.00;;
35442;SDS011;21561;55.654;37.592;2023-01-28T04:03:14;20.25;;;8.13;;
35442;SDS011;21561;55.654;37.592;2023-01-28T04:05:43;21.70;;;8.45;;
35442;SDS011;21561;55.654;37.592;2023-01-28T04:08:11;19.75;;;7.90;;
35442;SDS011;21561;55.654;37.592;2023-01-28T04:10:39;19.23;;;7.63;;
35442;SDS011;21561;55.654;37.592;2023-01-28T04:13:06;19.42;;;7.38;;
35442;SDS011;21561;55.654;37.592;2023-01-28T04:15:33;19.45;;;7.90;;
35442;SDS011;21561;55.654;37.592;2023-01-28T04:18:01;18.25;;;7.20;;
35442;SDS011;21561;55.654;37.592;2023-01-28T04:20:28;18.08;;;6.72;;
35442;SDS011;21561;55.654;37.592;2023-01-28T04:22:56;18.55;;;7.35;;
35442;SDS011;21561;55.654;37.592;2023-01-28T04:25:23;20.73;;;7.68;;
35442;SDS011;21561;55.654;37.592;2023-01-28T04:27:50;19.48;;;7.45;;
35442;SDS011;21561;55.654;37.592;2023-01-28T04:30:17;19.98;;;7.88;;
35442;SDS011;21561;55.654;37.592;2023-01-28T04:32:45;19.73;;;7.45;;
35442;SDS011;21561;55.654;37.592;2023-01-28T04:35:12;20.27;;;8.43;;
35442;SDS011;21561;55.654;37.592;2023-01-28T04:37:40;20.00;;;7.97;;
35442;SDS011;21561;55.654;37.592;2023-01-28T04:40:08;21.58;;;8.02;;
35442;SDS011;21561;55.654;37.592;2023-01-28T04:42:36;18.50;;;7.35;;
35442;SDS011;21561;55.654;37.592;2023-01-28T04:45:04;21.00;;;7.63;;
35442;SDS011;21561;55.654;37.592;2023-01-28T04:47:31;21.23;;;7.75;;
35442;SDS011;21561;55.654;37.592;2023-01-28T04:49:58;17.38;;;6.43;;
35442;SDS011;21561;55.654;37.592;2023-01-28T04:52:25;21.02;;;8.38;;
35442;SDS011;21561;55.654;37.592;2023-01-28T04:54:51;20.08;;;7.97;;
35442;SDS011;21561;55.654;37.592;2023-01-28T04:57:18;18.88;;;7.65;;
35442;SDS011;21561;55.654;37.592;2023-01-28T04:59:45;19.58;;;7.60;;
35442;SDS011;21561;55.654;37.592;2023-01-28T05:02:12;19.13;;;7.32;;
35442;SDS011;21561;55.654;37.592;2023-01-28T05:04:39;18.80;;;7.43;;
35442;SDS011;21561;55.654;37.592;2023-01-28T05:07:06;19.45;;;7.65;;
35442;SDS011;21561;55.654;37.592;2023-01-28T05:09:32;18.58;;;7.00;;
35442;SDS011;21561;55.654;37.592;2023-01-28T05:11:59;19.17;;;7.05;;
35442;SDS011;21561;55.654;37.592;2023-01-28T05:14:26;18.10;;;6.88;;
35442;SDS011;21561;55.654;37.592;2023-01-28T05:16:53;17.48;;;6.95;;
35442;SDS011;21561;55.654;37.592;2023-01-28T05:19:20;19.70;;;7.45;;
35442;SDS011;21561;55.654;37.592;2023-01-28T05:21:47;20.67;;;7.97;;
35442;SDS011;21561;55.654;37.592;2023-01-28T05:24:13;19.42;;;7.47;;
35442;SDS011;21561;55.654;37.592;2023-01-28T05:26:41;18.13;;;7.05;;
35442;SDS011;21561;55.654;37.592;2023-01-28T05:29:08;18.67;;;7.10;;
35442;SDS011;21561;55.654;37.592;2023-01-28T05:31:35;17.98;;;6.72;;
35442;SDS011;21561;55.654;37.592;2023-01-28T05:34:02;18.63;;;7.07;;
35442;SDS011;21561;55.654;37.592;2023-01-28T05:36:29;18.38;;;6.80;;
35442;SDS011;21561;55.654;37.592;2023-01-28T05:38:56;18.33;;;7.13;;
35442;SDS011;21561;55.654;37.592;2023-01-28T05:41:22;18.45;;;7.63;;
35442;SDS011;21561;55.654;37.592;2023-01-28T05:43:49;19.35;;;7.57;;
35442;SDS011;21561;55.654;37.592;2023-01-28T05:46:16;20.52;;;7.90;;
35442;SDS011;21561;55.654;37.592;2023-01-28T05:48:43;18.80;;;7.70;;
35442;SDS011;21561;55.654;37.592;2023-01-28T05:51:11;21.60;;;7.35;;
35442;SDS011;21561;55.654;37.592;2023-01-28T05:53:38;20.83;;;8.70;;
35442;SDS011;21561;55.654;37.592;2023-01-28T05:56:05;19.88;;;8.10;;
35442;SDS011;21561;55.654;37.592;2023-01-28T05:58:32;20.38;;;8.27;;
35442;SDS011;21561;55.654;37.592;2023-01-28T06:00:59;20.02;;;7.93;;
35442;SDS011;21561;55.654;37.592;2023-01-28T06:03:25;20.55;;;7.97;;
35442;SDS011;21561;55.654;37.592;2023-01-28T06:05:52;20.67;;;8.25;;
35442;SDS011;21561;55.654;37.592;2023-01-28T06:08:19;19.42;;;7.93;;
35442;SDS011;21561;55.654;37.592;2023-01-28T06:10:46;21.83;;;8.48;;
35442;SDS011;21561;55.654;37.592;2023-01-28T06:13:13;21.27;;;8.38;;
35442;SDS011;21561;55.654;37.592;2023-01-28T06:15:40;22.20;;;8.65;;
35442;SDS011;21561;55.654;37.592;2023-01-28T06:18:07;20.67;;;8.63;;
35442;SDS011;21561;55.654;37.592;2023-01-28T06:20:34;21.75;;;8.32;;
35442;SDS011;21561;55.654;37.592;2023-01-28T06:23:01;21.90;;;8.35;;
35442;SDS011;21561;55.654;37.592;2023-01-28T06:25:27;20.70;;;8.32;;
35442;SDS011;21561;55.654;37.592;2023-01-28T06:27:54;20.90;;;8.52;;
35442;SDS011;21561;55.654;37.592;2023-01-28T06:30:21;20.73;;;8.70;;
35442;SDS011;21561;55.654;37.592;2023-01-28T06:32:52;20.73;;;8.32;;
35442;SDS011;21561;55.654;37.592;2023-01-28T06:35:22;19.38;;;8.02;;
35442;SDS011;21561;55.654;37.592;2023-01-28T06:37:49;21.52;;;8.93;;
35442;SDS011;21561;55.654;37.592;2023-01-28T06:40:18;23.58;;;8.93;;
35442;SDS011;21561;55.654;37.592;2023-01-28T06:42:45;23.13;;;8.23;;
35442;SDS011;21561;55.654;37.592;2023-01-28T06:45:12;20.17;;;8.30;;
35442;SDS011;21561;55.654;37.592;2023-01-28T06:47:39;20.58;;;8.27;;
35442;SDS011;21561;55.654;37.592;2023-01-28T06:50:06;23.23;;;8.70;;
35442;SDS011;21561;55.654;37.592;2023-01-28T06:52:33;20.35;;;8.23;;
35442;SDS011;21561;55.654;37.592;2023-01-28T06:55:00;20.40;;;8.10;;
35442;SDS011;21561;55.654;37.592;2023-01-28T06:57:29;24.80;;;8.90;;
35442;SDS011;21561;55.654;37.592;2023-01-28T06:59:56;23.30;;;8.73;;
35442;SDS011;21561;55.654;37.592;2023-01-28T07:02:22;21.48;;;8.45;;
35442;SDS011;21561;55.654;37.592;2023-01-28T07:04:53;19.98;;;8.95;;
35442;SDS011;21561;55.654;37.592;2023-01-28T07:07:20;19.40;;;8.00;;
35442;SDS011;21561;55.654;37.592;2023-01-28T07:09:46;21.10;;;8.82;;
35442;SDS011;21561;55.654;37.592;2023-01-28T07:12:13;23.30;;;9.30;;
35442;SDS011;21561;55.654;37.592;2023-01-28T07:14:40;20.55;;;8.70;;
35442;SDS011;21561;55.654;37.592;2023-01-28T07:17:07;21.33;;;9.32;;
35442;SDS011;21561;55.654;37.592;2023-01-28T07:19:34;23.90;;;9.75;;
35442;SDS011;21561;55.654;37.592;2023-01-28T07:22:01;22.40;;;9.98;;
35442;SDS011;21561;55.654;37.592;2023-01-28T07:24:29;23.40;;;10.25;;
35442;SDS011;21561;55.654;37.592;2023-01-28T07:26:56;24.33;;;10.50;;
35442;SDS011;21561;55.654;37.592;2023-01-28T07:29:23;23.75;;;10.32;;
35442;SDS011;21561;55.654;37.592;2023-01-28T07:31:50;27.05;;;11.30;;
35442;SDS011;21561;55.654;37.592;2023-01-28T07:34:17;23.48;;;10.38;;
35442;SDS011;21561;55.654;37.592;2023-01-28T07:36:44;26.40;;;10.93;;
35442;SDS011;21561;55.654;37.592;2023-01-28T07:39:10;25.67;;;10.57;;
35442;SDS011;21561;55.654;37.592;2023-01-28T07:41:37;24.10;;;11.25;;
35442;SDS011;21561;55.654;37.592;2023-01-28T07:44:04;28.00;;;11.38;;
35442;SDS011;21561;55.654;37.592;2023-01-28T07:46:31;26.52;;;11.57;;
35442;SDS011;21561;55.654;37.592;2023-01-28T07:48:58;24.35;;;11.13;;
35442;SDS011;21561;55.654;37.592;2023-01-28T07:51:25;27.30;;;11.48;;
35442;SDS011;21561;55.654;37.592;2023-01-28T07:53:52;29.30;;;12.05;;
35442;SDS011;21561;55.654;37.592;2023-01-28T07:56:19;25.23;;;11.15;;
35442;SDS011;21561;55.654;37.592;2023-01-28T07:58:48;27.35;;;12.30;;
35442;SDS011;21561;55.654;37.592;2023-01-28T08:01:15;29.23;;;11.95;;
35442;SDS011;21561;55.654;37.592;2023-01-28T08:03:43;25.90;;;11.45;;
35442;SDS011;21561;55.654;37.592;2023-01-28T08:06:10;31.40;;;12.10;;
35442;SDS011;21561;55.654;37.592;2023-01-28T08:08:37;28.40;;;11.73;;
35442;SDS011;21561;55.654;37.592;2023-01-28T08:11:07;27.40;;;11.85;;
35442;SDS011;21561;55.654;37.592;2023-01-28T08:13:36;30.77;;;12.18;;
35442;SDS011;21561;55.654;37.592;2023-01-28T08:16:03;26.00;;;10.60;;
35442;SDS011;21561;55.654;37.592;2023-01-28T08:18:30;26.95;;;11.32;;
35442;SDS011;21561;55.654;37.592;2023-01-28T08:20:58;27.33;;;11.13;;
35442;SDS011;21561;55.654;37.592;2023-01-28T08:23:25;25.50;;;10.70;;
35442;SDS011;21561;55.654;37.592;2023-01-28T08:25:52;26.08;;;11.05;;
35442;SDS011;21561;55.654;37.592;2023-01-28T08:28:20;27.60;;;10.80;;
35442;SDS011;21561;55.654;37.592;2023-01-28T08:30:47;26.83;;;11.02;;
35442;SDS011;21561;55.654;37.592;2023-01-28T08:33:15;26.67;;;11.40;;
35442;SDS011;21561;55.654;37.592;2023-01-28T08:35:43;26.48;;;11.23;;
35442;SDS011;21561;55.654;37.592;2023-01-28T08:38:11;30.05;;;11.35;;
35442;SDS011;21561;55.654;37.592;2023-01-28T08:40:40;27.00;;;11.80;;
35442;SDS011;21561;55.654;37.592;2023-01-28T08:43:07;25.15;;;11.35;;
35442;SDS011;21561;55.654;37.592;2023-01-28T08:45:34;26.13;;;10.68;;
35442;SDS011;21561;55.654;37.592;2023-01-28T08:48:05;24.63;;;10.00;;
35442;SDS011;21561;55.654;37.592;2023-01-28T08:50:34;25.23;;;10.98;;
35442;SDS011;21561;55.654;37.592;2023-01-28T08:53:06;26.25;;;9.93;;
35442;SDS011;21561;55.654;37.592;2023-01-28T08:55:35;24.00;;;10.07;;
35442;SDS011;21561;55.654;37.592;2023-01-28T08:58:03;27.83;;;10.88;;
35442;SDS011;21561;55.654;37.592;2023-01-28T09:00:31;26.20;;;11.02;;
35442;SDS011;21561;55.654;37.592;2023-01-28T09:02:59;24.00;;;10.20;;
35442;SDS011;21561;55.654;37.592;2023-01-28T09:05:29;26.55;;;10.75;;
35442;SDS011;21561;55.654;37.592;2023-01-28T09:08:05;25.67;;;10.85;;
35442;SDS011;21561;55.654;37.592;2023-01-28T09:10:33;24.73;;;9.85;;
35442;SDS011;21561;55.654;37.592;2023-01-28T09:13:12;24.02;;;10.10;;
35442;SDS011;21561;55.654;37.592;2023-01-28T09:15:40;25.40;;;10.13;;
35442;SDS011;21561;55.654;37.592;2023-01-28T09:18:08;24.38;;;10.07;;
35442;SDS011;21561;55.654;37.592;2023-01-28T09:20:35;24.08;;;10.38;;
35442;SDS011;21561;55.654;37.592;2023-01-28T09:23:03;26.70;;;9.95;;
35442;SDS011;21561;55.654;37.592;2023-01-28T09:25:30;29.77;;;10.65;;
35442;SDS011;21561;55.654;37.592;2023-01-28T09:27:57;27.50;;;10.88;;
35442;SDS011;21561;55.654;37.592;2023-01-28T09:30:24;26.75;;;10.73;;
35442;SDS011;21561;55.654;37.592;2023-01-28T09:32:52;25.13;;;10.18;;
35442;SDS011;21561;55.654;37.592;2023-01-28T09:35:19;21.65;;;9.30;;
35442;SDS011;21561;55.654;37.592;2023-01-28T09:37:47;24.73;;;9.90;;
35442;SDS011;21561;55.654;37.592;2023-01-28T09:43:30;25.80;;;10.00;;
35442;SDS011;21561;55.654;37.592;2023-01-28T09:46:10;24.25;;;10.07;;
35442;SDS011;21561;55.654;37.592;2023-01-28T09:48:40;26.23;;;10.02;;
35442;SDS011;21561;55.654;37.592;2023-01-28T09:51:21;21.70;;;9.02;;
35442;SDS011;21561;55.654;37.592;2023-01-28T09:53:52;23.58;;;10.10;;
35442;SDS011;21561;55.654;37.592;2023-01-28T09:56:25;27.35;;;10.77;;
35442;SDS011;21561;55.654;37.592;2023-01-28T09:59:16;28.38;;;12.90;;
35442;SDS011;21561;55.654;37.592;2023-01-28T10:06:59;24.15;;;10.52;;
35442;SDS011;21561;55.654;37.592;2023-01-28T10:09:33;30.65;;;11.27;;
35442;SDS011;21561;55.654;37.592;2023-01-28T10:17:50;28.60;;;11.55;;
35442;SDS011;21561;55.654;37.592;2023-01-28T10:20:37;32.55;;;13.10;;
35442;SDS011;21561;55.654;37.592;2023-01-28T10:23:13;26.50;;;11.45;;
35442;SDS011;21561;55.654;37.592;2023-01-28T10:26:03;28.75;;;11.63;;
35442;SDS011;21561;55.654;37.592;2023-01-28T10:28:36;26.33;;;11.55;;
35442;SDS011;21561;55.654;37.592;2023-01-28T10:31:11;29.40;;;11.88;;
35442;SDS011;21561;55.654;37.592;2023-01-28T10:33:39;28.75;;;11.93;;
35442;SDS011;21561;55.654;37.592;2023-01-28T10:36:06;30.73;;;13.07;;
35442;SDS011;21561;55.654;37.592;2023-01-28T10:38:35;27.20;;;11.63;;
35442;SDS011;21561;55.654;37.592;2023-01-28T10:41:02;26.33;;;11.98;;
35442;SDS011;21561;55.654;37.592;2023-01-28T10:43:32;27.42;;;11.52;;
35442;SDS011;21561;55.654;37.592;2023-01-28T10:46:46;28.33;;;11.18;;
35442;SDS011;21561;55.654;37.592;2023-01-28T10:51:41;28.33;;;11.40;;
35442;SDS011;21561;55.654;37.592;2023-01-28T10:54:20;28.92;;;12.10;;
35442;SDS011;21561;55.654;37.592;2023-01-28T10:56:57;28.60;;;12.10;;
35442;SDS011;21561;55.654;37.592;2023-01-28T10:59:32;27.17;;;11.25;;
35442;SDS011;21561;55.654;37.592;2023-01-28T11:02:05;30.60;;;12.50;;
35442;SDS011;21561;55.654;37.592;2023-01-28T11:04:59;27.27;;;11.13;;
35442;SDS011;21561;55.654;37.592;2023-01-28T11:07:42;30.85;;;13.68;;
35442;SDS011;21561;55.654;37.592;2023-01-28T11:12:55;35.85;;;13.73;;
35442;SDS011;21561;55.654;37.592;2023-01-28T11:15:23;28.05;;;12.45;;
35442;SDS011;21561;55.654;37.592;2023-01-28T11:17:53;30.42;;;13.65;;
35442;SDS011;21561;55.654;37.592;2023-01-28T11:20:23;32.53;;;13.27;;
35442;SDS011;21561;55.654;37.592;2023-01-28T11:22:52;31.48;;;13.02;;
35442;SDS011;21561;55.654;37.592;2023-01-28T11:27:56;31.88;;;13.70;;
35442;SDS011;21561;55.654;37.592;2023-01-28T11:30:31;32.88;;;13.85;;
35442;SDS011;21561;55.654;37.592;2023-01-28T11:33:05;35.08;;;13.13;;
35442;SDS011;21561;55.654;37.592;2023-01-28T11:35:36;32.42;;;13.95;;
35442;SDS011;21561;55.654;37.592;2023-01-28T11:38:03;32.42;;;13.65;;
35442;SDS011;21561;55.654;37.592;2023-01-28T11:40:50;32.45;;;13.00;;
35442;SDS011;21561;55.654;37.592;2023-01-28T11:43:21;33.10;;;13.95;;
35442;SDS011;21561;55.654;37.592;2023-01-28T11:50:57;31.70;;;13.18;;
35442;SDS011;21561;55.654;37.592;2023-01-28T12:22:56;37.88;;;16.05;;
35442;SDS011;21561;55.654;37.592;2023-01-28T12:34:11;38.13;;;16.60;;
35442;SDS011;21561;55.654;37.592;2023-01-28T12:41:46;38.30;;;17.35;;
35442;SDS011;21561;55.654;37.592;2023-01-28T12:44:22;40.47;;;17.77;;
35442;SDS011;21561;55.654;37.592;2023-01-28T12:46:58;37.47;;;16.63;;
35442;SDS011;21561;55.654;37.592;2023-01-28T12:52:02;39.65;;;18.38;;
35442;SDS011;21561;55.654;37.592;2023-01-28T12:54:40;38.42;;;19.30;;
35442;SDS011;21561;55.654;37.592;2023-01-28T12:57:17;40.72;;;17.23;;
35442;SDS011;21561;55.654;37.592;2023-01-28T12:59:56;37.83;;;16.48;;
35442;SDS011;21561;55.654;37.592;2023-01-28T13:02:33;40.40;;;16.77;;
35442;SDS011;21561;55.654;37.592;2023-01-28T13:05:13;41.58;;;18.25;;
35442;SDS011;21561;55.654;37.592;2023-01-28T13:07:56;40.17;;;17.08;;
35442;SDS011;21561;55.654;37.592;2023-01-28T13:15:42;38.63;;;16.88;;
35442;SDS011;21561;55.654;37.592;2023-01-28T13:18:27;37.35;;;16.58;;
35442;SDS011;21561;55.654;37.592;2023-01-28T13:21:02;45.38;;;19.13;;
35442;SDS011;21561;55.654;37.592;2023-01-28T13:26:49;42.05;;;18.23;;
35442;SDS011;21561;55.654;37.592;2023-01-28T13:29:16;42.50;;;17.67;;
35442;SDS011;21561;55.654;37.592;2023-01-28T13:31:46;43.35;;;18.05;;
35442;SDS011;21561;55.654;37.592;2023-01-28T13:34:34;45.65;;;18.20;;
35442;SDS011;21561;55.654;37.592;2023-01-28T13:39:53;44.80;;;19.60;;
35442;SDS011;21561;55.654;37.592;2023-01-28T13:42:26;40.05;;;18.33;;
35442;SDS011;21561;55.654;37.592;2023-01-28T13:44:55;45.95;;;19.35;;
35442;SDS011;21561;55.654;37.592;2023-01-28T13:47:35;42.33;;;18.67;;
35442;SDS011;21561;55.654;37.592;2023-01-28T13:50:05;45.72;;;19.60;;
35442;SDS011;21561;55.654;37.592;2023-01-28T14:01:09;44.85;;;19.23;;
35442;SDS011;21561;55.654;37.592;2023-01-28T14:20:50;44.13;;;19.67;;
35442;SDS011;21561;55.654;37.592;2023-01-28T14:23:20;42.50;;;18.48;;
35442;SDS011;21561;55.654;37.592;2023-01-28T14:31:38;49.08;;;21.05;;
35442;SDS011;21561;55.654;37.592;2023-01-28T14:34:18;47.75;;;20.95;;
35442;SDS011;21561;55.654;37.592;2023-01-28T14:36:50;51.08;;;20.30;;
35442;SDS011;21561;55.654;37.592;2023-01-28T14:39:24;47.10;;;19.98;;
35442;SDS011;21561;55.654;37.592;2023-01-28T14:41:54;45.78;;;19.75;;
35442;SDS011;21561;55.654;37.592;2023-01-28T14:47:09;46.60;;;19.73;;
35442;SDS011;21561;55.654;37.592;2023-01-28T14:52:56;47.00;;;20.05;;
35442;SDS011;21561;55.654;37.592;2023-01-28T14:58:47;48.50;;;20.25;;
35442;SDS011;21561;55.654;37.592;2023-01-28T15:01:23;47.53;;;19.85;;
35442;SDS011;21561;55.654;37.592;2023-01-28T15:03:51;48.00;;;20.42;;
35442;SDS011;21561;55.654;37.592;2023-01-28T15:06:22;48.00;;;21.27;;
35442;SDS011;21561;55.654;37.592;2023-01-28T15:08:51;47.90;;;20.77;;
35442;SDS011;21561;55.654;37.592;2023-01-28T15:11:20;55.30;;;21.20;;
35442;SDS011;21561;55.654;37.592;2023-01-28T15:13:51;44.38;;;20.35;;
35442;SDS011;21561;55.654;37.592;2023-01-28T15:16:25;48.33;;;21.80;;
35442;SDS011;21561;55.654;37.592;2023-01-28T15:18:54;49.33;;;21.60;;
35442;SDS011;21561;55.654;37.592;2023-01-28T15:21:24;45.42;;;20.00;;
35442;SDS011;21561;55.654;37.592;2023-01-28T15:23:57;44.10;;;20.27;;
35442;SDS011;21561;55.654;37.592;2023-01-28T15:26:32;49.80;;;21.35;;
35442;SDS011;21561;55.654;37.592;2023-01-28T15:29:00;45.42;;;19.58;;
35442;SDS011;21561;55.654;37.592;2023-01-28T15:31:28;51.92;;;22.73;;
35442;SDS011;21561;55.654;37.592;2023-01-28T15:33:57;47.50;;;20.75;;
35442;SDS011;21561;55.654;37.592;2023-01-28T15:39:12;45.03;;;19.95;;
35442;SDS011;21561;55.654;37.592;2023-01-28T15:41:41;45.70;;;18.92;;
35442;SDS011;21561;55.654;37.592;2023-01-28T15:44:16;46.00;;;20.23;;
35442;SDS011;21561;55.654;37.592;2023-01-28T15:47:13;43.10;;;18.33;;
35442;SDS011;21561;55.654;37.592;2023-01-28T15:49:42;43.35;;;19.35;;
35442;SDS011;21561;55.654;37.592;2023-01-28T15:52:11;43.20;;;19.58;;
35442;SDS011;21561;55.654;37.592;2023-01-28T15:54:43;44.05;;;19.70;;
35442;SDS011;21561;55.654;37.592;2023-01-28T16:02:52;42.28;;;18.40;;
35442;SDS011;21561;55.654;37.592;2023-01-28T16:05:24;41.55;;;19.52;;
35442;SDS011;21561;55.654;37.592;2023-01-28T16:07:54;42.05;;;18.52;;
35442;SDS011;21561;55.654;37.592;2023-01-28T16:10:26;44.13;;;19.48;;
35442;SDS011;21561;55.654;37.592;2023-01-28T16:15:48;42.53;;;19.17;;
35442;SDS011;21561;55.654;37.592;2023-01-28T16:18:40;45.40;;;18.30;;
35442;SDS011;21561;55.654;37.592;2023-01-28T16:21:18;45.80;;;18.98;;
35442;SDS011;21561;55.654;37.592;2023-01-28T16:23:58;52.25;;;20.83;;
35442;SDS011;21561;55.654;37.592;2023-01-28T16:26:31;39.75;;;18.38;;
35442;SDS011;21561;55.654;37.592;2023-01-28T16:29:10;42.88;;;18.48;;
35442;SDS011;21561;55.654;37.592;2023-01-28T16:31:40;45.50;;;19.58;;
35442;SDS011;21561;55.654;37.592;2023-01-28T16:34:09;48.58;;;18.88;;
35442;SDS011;21561;55.654;37.592;2023-01-28T16:36:36;43.25;;;18.88;;
35442;SDS011;21561;55.654;37.592;2023-01-28T16:39:03;44.30;;;20.38;;
35442;SDS011;21561;55.654;37.592;2023-01-28T16:41:31;43.75;;;18.38;;
35442;SDS011;21561;55.654;37.592;2023-01-28T16:44:01;36.95;;;16.77;;
35442;SDS011;21561;55.654;37.592;2023-01-28T16:46:31;39.58;;;15.98;;
35442;SDS011;21561;55.654;37.592;2023-01-28T16:48:58;35.80;;;16.73;;
35442;SDS011;21561;55.654;37.592;2023-01-28T16:51:25;35.13;;;15.60;;
35442;SDS011;21561;55.654;37.592;2023-01-28T16:53:52;33.63;;;14.23;;
35442;SDS011;21561;55.654;37.592;2023-01-28T16:56:21;38.25;;;15.75;;
35442;SDS011;21561;55.654;37.592;2023-01-28T16:59:10;32.75;;;14.95;;
35442;SDS011;21561;55.654;37.592;2023-01-28T17:01:37;32.45;;;14.32;;
35442;SDS011;21561;55.654;37.592;2023-01-28T17:04:05;33.47;;;14.68;;
35442;SDS011;21561;55.654;37.592;2023-01-28T17:06:38;37.78;;;16.45;;
35442;SDS011;21561;55.654;37.592;2023-01-28T17:09:09;35.20;;;15.00;;
35442;SDS011;21561;55.654;37.592;2023-01-28T17:11:37;34.90;;;15.07;;
35442;SDS011;21561;55.654;37.592;2023-01-28T17:14:08;36.13;;;16.25;;
35442;SDS011;21561;55.654;37.592;2023-01-28T17:16:36;36.58;;;16.08;;